Meath Environmental Platform

Observations for Trim Patrick St

Time AQI Temp °C Hum % Pres Pa CO μg/m³ H₂S μg/m³ NO μg/m³ NO₂ μg/m³ O₃ μg/m³ SO₂ μg/m³ PM1 μg/m³ PM2.5 μg/m³ PM10 μg/m³
Friday 7 August 2026
22:22 3 18.1 57 71,882 0 13.66 1.1 31.53 38.3 3.2 3.71 8.19 9.01
22:21 3 18.2 58 71,852 0 14.53 1.11 36.66 38.63 3.48 2.86 6.66 7.33
22:20 3 18.2 58 71,788 0 14.37 1.11 34.96 38.1 3.59 2 5.9 6.49
22:17 3 18.3 58 71,676 0 15.26 1.11 38.25 39.44 4.22 3.71 8.91 9.8
22:16 3 18.3 58 71,642 0 14.84 1.11 41.22 38.43 3.54 3.71 8.16 8.98
22:15 3 18.3 56 71,566 0 14.05 1.1 34.24 34.89 3.81 2.86 7.51 8.26
22:14 3 18.4 56 71,527 0 15.24 1.07 35.4 33.58 4.08 3.71 8.28 9.11
22:13 3 18.4 57 71,440 0 15.97 1.08 40.56 35.89 4.16 2 6.75 7.42
22:12 3 18.4 57 71,360 0 15.65 1.08 38.09 38.11 4.24 2.86 7.45 8.19
22:11 3 18.5 56 71,279 0 15.84 1.09 38.29 37.21 3.91 2 7.53 8.28
22:10 3 18.5 56 71,201 0 15.76 1.1 39.55 39.73 4.16 3.71 9.04 9.94
22:09 3 18.5 56 71,098 0 16.18 1.11 39.54 38.28 4.4 4.57 9.04 9.94
22:08 3 18.6 57 71,081 0 16.1 1.1 39.08 39.25 4.45 3.71 8.25 9.07
22:07 3 18.6 57 71,020 0 15.16 1.09 39.95 38.62 4.23 3.71 8.98 9.88
22:06 3 18.7 56 70,971 0 14.71 1.09 35.46 34.97 4.28 4.57 9.07 9.98
22:04 3 18.7 57 70,865 0 16.84 1.09 45.78 29.48 4.78 3.71 8.99 9.89
22:03 3 18.8 57 70,765 0 17.63 1.09 49.34 27.59 4.8 3.71 8.99 9.89
22:02 3 18.8 57 70,690 0 18.18 1.1 48.54 30.73 4.77 2.86 6.73 7.4
22:01 3 18.9 56 70,594 0 19.39 1.11 51.24 23.61 5.41 3.71 7.5 8.25
22:00 3 18.9 57 70,488 0 21.07 1.1 68.57 16.25 4.89 3.71 8.25 9.07